Time;durP1;ratioP1;P1;durP2;ratioP2;P2;SDS_P1;SDS_P2;PMS_P1;PMS_P2;Temp;Humidity;BMP_temperature;BMP_pressure;BME280_temperature;BME280_humidity;BME280_pressure;Samples;Min_cycle;Max_cycle;Signal;HPM_P1;HPM_P2
2023/08/10 00:02:06;;;;;;;3.90;0.95;;;;;;;;;;5075874;28;20444;-84
2023/08/10 00:04:33;;;;;;;2.58;0.88;;;;;;;;;;5074958;28;20059;-84
2023/08/10 00:06:59;;;;;;;4.47;1.48;;;;;;;;;;5074210;28;20049;-84
2023/08/10 00:09:25;;;;;;;3.53;0.70;;;;;;;;;;5074997;28;20086;-84
2023/08/10 00:11:51;;;;;;;2.97;1.05;;;;;;;;;;5075133;28;20055;-84
2023/08/10 00:14:17;;;;;;;4.47;1.00;;;;;;;;;;5074979;28;20477;-84
2023/08/10 00:16:44;;;;;;;2.95;0.90;;;;;;;;;;5073813;28;20472;-83
2023/08/10 00:19:10;;;;;;;6.53;1.77;;;;;;;;;;5074359;28;20044;-83
2023/08/10 00:21:36;;;;;;;5.90;1.42;;;;;;;;;;5074651;28;20047;-83
2023/08/10 00:24:02;;;;;;;4.68;1.23;;;;;;;;;;5057897;28;20044;-84
2023/08/10 00:26:28;;;;;;;2.95;0.70;;;;;;;;;;5056953;28;20140;-84
2023/08/10 00:28:54;;;;;;;5.38;1.35;;;;;;;;;;5074688;28;20056;-83
2023/08/10 00:31:20;;;;;;;5.97;1.20;;;;;;;;;;5074683;28;20041;-84
2023/08/10 00:33:46;;;;;;;2.63;0.85;;;;;;;;;;5073785;28;20121;-84
2023/08/10 00:36:12;;;;;;;3.33;0.95;;;;;;;;;;5074494;28;20060;-83
2023/08/10 00:38:40;;;;;;;5.45;1.08;;;;;;;;;;5074268;28;20052;-84
2023/08/10 00:41:06;;;;;;;2.22;0.80;;;;;;;;;;5075267;28;20557;-84
2023/08/10 00:43:33;;;;;;;4.65;0.80;;;;;;;;;;5073562;28;20037;-84
2023/08/10 00:46:00;;;;;;;3.03;0.70;;;;;;;;;;5075094;28;20048;-84
2023/08/10 00:48:26;;;;;;;5.85;0.90;;;;;;;;;;5058072;28;20086;-84
2023/08/10 00:50:53;;;;;;;5.10;0.93;;;;;;;;;;5042075;28;20485;-84
2023/08/10 00:53:19;;;;;;;2.58;1.00;;;;;;;;;;5057512;28;20076;-84
2023/08/10 00:55:51;;;;;;;4.05;0.85;;;;;;;;;;5073386;28;20071;-84
2023/08/10 00:58:18;;;;;;;4.15;0.90;;;;;;;;;;5073062;28;20044;-84
2023/08/10 01:00:45;;;;;;;5.22;1.15;;;;;;;;;;5073407;28;20044;-84
2023/08/10 01:03:11;;;;;;;4.88;1.10;;;;;;;;;;5057141;28;20044;-84
2023/08/10 01:05:41;;;;;;;4.97;0.90;;;;;;;;;;5073619;28;20051;-84
2023/08/10 01:08:22;;;;;;;3.90;0.90;;;;;;;;;;5072893;28;20061;-83
2023/08/10 01:10:55;;;;;;;3.67;0.90;;;;;;;;;;5074902;28;20096;-84
2023/08/10 01:13:57;;;;;;;4.15;1.10;;;;;;;;;;5073274;28;20045;-84
2023/08/10 01:16:23;;;;;;;5.25;1.08;;;;;;;;;;5015776;28;20053;-84
2023/08/10 01:18:50;;;;;;;3.40;0.98;;;;;;;;;;5061710;28;20456;-84
2023/08/10 01:21:30;;;;;;;3.67;1.13;;;;;;;;;;5074174;28;20084;-84
2023/08/10 01:23:56;;;;;;;4.45;0.90;;;;;;;;;;5073414;28;20076;-83
2023/08/10 01:26:26;;;;;;;2.70;1.10;;;;;;;;;;5057448;28;20098;-84
2023/08/10 01:28:53;;;;;;;2.40;0.82;;;;;;;;;;5074161;28;20049;-84
2023/08/10 01:31:19;;;;;;;2.67;0.88;;;;;;;;;;5073641;28;20437;-83
2023/08/10 01:33:45;;;;;;;4.03;1.00;;;;;;;;;;5074212;28;20068;-83
2023/08/10 01:36:11;;;;;;;3.25;0.82;;;;;;;;;;5056966;28;20055;-83
2023/08/10 01:38:37;;;;;;;4.95;1.15;;;;;;;;;;5077140;28;20044;-84
2023/08/10 01:41:03;;;;;;;5.57;1.25;;;;;;;;;;5077239;28;20044;-84
2023/08/10 01:43:29;;;;;;;3.80;1.15;;;;;;;;;;5060520;28;20036;-83
2023/08/10 01:45:56;;;;;;;3.05;1.23;;;;;;;;;;5076878;28;20079;-83
2023/08/10 01:48:25;;;;;;;3.55;1.45;;;;;;;;;;5077546;28;20044;-84
2023/08/10 01:50:53;;;;;;;4.28;1.27;;;;;;;;;;5077229;28;20044;-84
2023/08/10 01:53:23;;;;;;;3.20;0.88;;;;;;;;;;5077270;28;20041;-84
2023/08/10 01:55:49;;;;;;;3.92;1.25;;;;;;;;;;5060747;28;20095;-84
2023/08/10 01:58:15;;;;;;;2.88;1.00;;;;;;;;;;5078251;28;20048;-84
2023/08/10 02:00:42;;;;;;;2.85;0.80;;;;;;;;;;5060623;28;20109;-84
2023/08/10 02:03:08;;;;;;;4.25;1.10;;;;;;;;;;5060621;28;20225;-84
2023/08/10 02:05:34;;;;;;;4.25;0.77;;;;;;;;;;5077089;28;20102;-83
2023/08/10 02:08:00;;;;;;;6.35;1.30;;;;;;;;;;5077659;28;20064;-83
2023/08/10 02:10:26;;;;;;;5.05;1.20;;;;;;;;;;5059820;28;20057;-83
2023/08/10 02:12:52;;;;;;;3.92;1.02;;;;;;;;;;5078243;28;20084;-83
2023/08/10 02:15:19;;;;;;;3.72;0.85;;;;;;;;;;5077391;28;20063;-84
2023/08/10 02:17:46;;;;;;;5.63;1.33;;;;;;;;;;5076331;28;20048;-84
2023/08/10 02:20:12;;;;;;;2.80;1.08;;;;;;;;;;5077029;28;20045;-83
2023/08/10 02:22:58;;;;;;;4.80;1.50;;;;;;;;;;5077842;28;20052;-83
2023/08/10 02:25:24;;;;;;;5.05;1.63;;;;;;;;;;5076731;28;20043;-84
2023/08/10 02:27:50;;;;;;;5.97;1.98;;;;;;;;;;5077716;28;20052;-83
2023/08/10 02:30:16;;;;;;;3.13;1.05;;;;;;;;;;5076545;28;20048;-83
2023/08/10 02:32:43;;;;;;;2.88;1.67;;;;;;;;;;5076638;28;20500;-83
2023/08/10 02:35:09;;;;;;;4.82;1.35;;;;;;;;;;5076402;28;20060;-84
2023/08/10 02:37:35;;;;;;;3.65;1.55;;;;;;;;;;5076815;28;20110;-84
2023/08/10 02:40:04;;;;;;;4.53;1.98;;;;;;;;;;5077779;28;20135;-84
2023/08/10 02:42:30;;;;;;;5.22;2.28;;;;;;;;;;5076391;28;20059;-84
2023/08/10 02:44:56;;;;;;;2.95;1.77;;;;;;;;;;5077426;28;20527;-84
2023/08/10 02:47:22;;;;;;;6.35;2.22;;;;;;;;;;5042669;28;20489;-83
2023/08/10 02:49:48;;;;;;;3.10;1.77;;;;;;;;;;5075655;28;20059;-83
2023/08/10 02:52:14;;;;;;;4.00;2.20;;;;;;;;;;5076875;28;20041;-84
2023/08/10 02:54:40;;;;;;;4.70;2.15;;;;;;;;;;5076523;28;20041;-84
2023/08/10 02:57:06;;;;;;;6.47;2.65;;;;;;;;;;5076202;28;20087;-84
2023/08/10 02:59:32;;;;;;;5.68;2.25;;;;;;;;;;5075842;28;20051;-84
2023/08/10 03:01:58;;;;;;;5.65;3.15;;;;;;;;;;5075138;28;20052;-84
2023/08/10 03:04:25;;;;;;;6.75;3.00;;;;;;;;;;5076496;28;20100;-83
2023/08/10 03:06:51;;;;;;;3.85;2.38;;;;;;;;;;5059454;28;20044;-84
2023/08/10 03:09:17;;;;;;;6.25;3.10;;;;;;;;;;5075872;28;20504;-83
2023/08/10 03:11:43;;;;;;;3.97;2.65;;;;;;;;;;5076537;28;20060;-84
2023/08/10 03:14:09;;;;;;;4.88;2.55;;;;;;;;;;5076783;28;20076;-84
2023/08/10 03:16:35;;;;;;;5.78;2.65;;;;;;;;;;5058778;28;20044;-84
2023/08/10 03:19:02;;;;;;;4.85;2.60;;;;;;;;;;5075607;28;20075;-84
2023/08/10 03:21:28;;;;;;;4.15;3.10;;;;;;;;;;5075841;28;20480;-84
2023/08/10 03:23:54;;;;;;;4.03;2.60;;;;;;;;;;5076235;28;20036;-84
2023/08/10 03:26:20;;;;;;;5.55;2.90;;;;;;;;;;5075882;28;20447;-84
2023/08/10 03:28:46;;;;;;;5.97;3.78;;;;;;;;;;5075310;28;20159;-84
2023/08/10 03:31:13;;;;;;;4.75;3.28;;;;;;;;;;5076377;28;20098;-83
2023/08/10 03:33:40;;;;;;;5.07;3.15;;;;;;;;;;5075937;28;20123;-84
2023/08/10 03:36:06;;;;;;;4.75;3.28;;;;;;;;;;5075829;28;20531;-84
2023/08/10 03:38:32;;;;;;;8.20;4.28;;;;;;;;;;5042413;28;20052;-84
2023/08/10 03:40:58;;;;;;;8.35;3.95;;;;;;;;;;5059357;28;20466;-84
2023/08/10 03:43:24;;;;;;;6.13;2.80;;;;;;;;;;5075360;28;20538;-84
2023/08/10 03:45:50;;;;;;;3.25;2.63;;;;;;;;;;5074672;28;20037;-83
2023/08/10 03:48:16;;;;;;;3.83;2.85;;;;;;;;;;5076159;28;20044;-84
2023/08/10 03:50:42;;;;;;;8.18;2.90;;;;;;;;;;5074869;28;20051;-84
2023/08/10 03:53:09;;;;;;;5.00;3.08;;;;;;;;;;5058614;28;20048;-84
2023/08/10 03:55:35;;;;;;;4.20;3.30;;;;;;;;;;5074867;28;20048;-84
2023/08/10 03:58:01;;;;;;;5.93;3.55;;;;;;;;;;5075284;28;20136;-84
2023/08/10 04:00:27;;;;;;;6.43;3.65;;;;;;;;;;5074956;28;20052;-83
2023/08/10 04:02:53;;;;;;;3.58;3.15;;;;;;;;;;5074467;28;20048;-84
2023/08/10 04:05:20;;;;;;;6.45;3.63;;;;;;;;;;5074263;28;20554;-84
2023/08/10 04:07:47;;;;;;;5.13;3.40;;;;;;;;;;5075282;28;20057;-84
2023/08/10 04:10:14;;;;;;;7.25;3.55;;;;;;;;;;5074038;28;20057;-84
2023/08/10 04:12:41;;;;;;;4.93;3.15;;;;;;;;;;5074468;28;20105;-83
2023/08/10 04:15:07;;;;;;;3.90;3.00;;;;;;;;;;5074618;28;20048;-84
2023/08/10 04:17:33;;;;;;;4.57;3.22;;;;;;;;;;5073098;28;20048;-84
2023/08/10 04:19:59;;;;;;;4.57;3.17;;;;;;;;;;5074154;28;20048;-84
2023/08/10 04:22:25;;;;;;;4.25;3.00;;;;;;;;;;5074443;28;20044;-84
2023/08/10 04:24:51;;;;;;;7.95;3.38;;;;;;;;;;5041288;28;20056;-84
2023/08/10 04:27:18;;;;;;;3.88;2.50;;;;;;;;;;5074472;28;20044;-84
2023/08/10 04:29:44;;;;;;;4.32;3.13;;;;;;;;;;5074853;28;20044;-84
2023/08/10 04:32:11;;;;;;;5.00;3.28;;;;;;;;;;5073626;28;20131;-84
2023/08/10 04:34:37;;;;;;;6.43;2.45;;;;;;;;;;5075312;28;20052;-83
2023/08/10 04:37:03;;;;;;;5.03;3.80;;;;;;;;;;5074084;28;20044;-83
2023/08/10 04:39:29;;;;;;;6.10;2.92;;;;;;;;;;5057563;28;20060;-84
2023/08/10 04:41:56;;;;;;;6.03;3.33;;;;;;;;;;5057715;28;20108;-83
2023/08/10 04:44:22;;;;;;;5.15;2.92;;;;;;;;;;5056908;28;20044;-84
2023/08/10 04:46:48;;;;;;;3.05;2.83;;;;;;;;;;5073372;28;20106;-84
2023/08/10 04:49:14;;;;;;;4.00;2.83;;;;;;;;;;5074505;28;20090;-83
2023/08/10 04:51:40;;;;;;;3.53;2.80;;;;;;;;;;5040714;28;20050;-85
2023/08/10 04:54:08;;;;;;;3.58;2.88;;;;;;;;;;5074142;28;20472;-84
2023/08/10 04:56:35;;;;;;;8.18;3.85;;;;;;;;;;5058574;28;20433;-84
2023/08/10 04:59:02;;;;;;;6.40;3.30;;;;;;;;;;5074293;28;20040;-84
2023/08/10 05:01:28;;;;;;;4.95;2.88;;;;;;;;;;5074876;28;20049;-84
2023/08/10 05:03:55;;;;;;;7.32;3.72;;;;;;;;;;5074208;28;20105;-84
2023/08/10 05:06:21;;;;;;;6.63;3.55;;;;;;;;;;5074670;28;20037;-84
2023/08/10 05:08:47;;;;;;;5.28;3.55;;;;;;;;;;5075712;28;20047;-84
2023/08/10 05:11:13;;;;;;;6.07;3.75;;;;;;;;;;5057616;28;20055;-84
2023/08/10 05:13:40;;;;;;;6.18;3.92;;;;;;;;;;5056695;28;20051;-84
2023/08/10 05:16:07;;;;;;;8.50;3.45;;;;;;;;;;5074220;28;20079;-85
2023/08/10 05:18:33;;;;;;;5.07;3.53;;;;;;;;;;5074620;28;20494;-84
2023/08/10 05:21:02;;;;;;;5.40;3.63;;;;;;;;;;5073775;28;20128;-84
2023/08/10 05:23:28;;;;;;;5.63;3.80;;;;;;;;;;5074589;28;20102;-84
2023/08/10 05:25:55;;;;;;;6.40;3.47;;;;;;;;;;5074585;28;20050;-84
2023/08/10 05:28:21;;;;;;;4.50;3.40;;;;;;;;;;5074240;28;20047;-84
2023/08/10 05:30:47;;;;;;;4.70;4.28;;;;;;;;;;5057603;28;20140;-84
2023/08/10 05:33:13;;;;;;;6.65;3.97;;;;;;;;;;5075330;28;20219;-84
2023/08/10 05:35:40;;;;;;;7.07;4.15;;;;;;;;;;5057504;28;20055;-85
2023/08/10 05:38:08;;;;;;;4.65;3.80;;;;;;;;;;5058300;28;20052;-84
2023/08/10 05:40:34;;;;;;;6.50;3.95;;;;;;;;;;5074183;28;20374;-84
2023/08/10 05:43:00;;;;;;;5.85;3.50;;;;;;;;;;5074397;28;20127;-85
2023/08/10 05:45:27;;;;;;;5.13;3.97;;;;;;;;;;5074123;28;20076;-85
2023/08/10 05:47:53;;;;;;;5.10;4.05;;;;;;;;;;5074391;28;20476;-84
2023/08/10 05:50:19;;;;;;;4.57;3.50;;;;;;;;;;5073898;28;20059;-84
2023/08/10 05:52:45;;;;;;;8.43;3.75;;;;;;;;;;5056877;28;20048;-84
2023/08/10 05:55:12;;;;;;;6.55;3.17;;;;;;;;;;5073799;28;20048;-85
2023/08/10 05:57:39;;;;;;;6.60;3.50;;;;;;;;;;5056904;28;20053;-85
2023/08/10 06:00:05;;;;;;;5.35;3.90;;;;;;;;;;5073762;28;20083;-84
2023/08/10 06:02:32;;;;;;;4.13;3.30;;;;;;;;;;5073419;28;20043;-85
2023/08/10 06:04:59;;;;;;;6.13;3.13;;;;;;;;;;5074781;28;20464;-85
2023/08/10 06:07:25;;;;;;;6.55;3.40;;;;;;;;;;5056764;28;20048;-85
2023/08/10 06:09:51;;;;;;;8.52;3.40;;;;;;;;;;5040427;28;20057;-85
2023/08/10 06:12:18;;;;;;;6.82;3.95;;;;;;;;;;5075179;28;20104;-85
2023/08/10 06:14:44;;;;;;;7.20;3.35;;;;;;;;;;5040794;28;20086;-86
2023/08/10 06:17:11;;;;;;;5.57;3.20;;;;;;;;;;5056650;28;20485;-85
2023/08/10 06:19:37;;;;;;;5.50;3.10;;;;;;;;;;5073432;28;20045;-85
2023/08/10 06:22:04;;;;;;;5.25;2.80;;;;;;;;;;5057103;28;20151;-85
2023/08/10 06:24:30;;;;;;;5.15;3.28;;;;;;;;;;5077802;28;20047;-86
2023/08/10 06:26:59;;;;;;;1.98;1.40;;;;;;;;;;5078089;28;20139;-86
2023/08/10 06:29:25;;;;;;;0.38;0.30;;;;;;;;;;5078710;28;20105;-85
2023/08/10 06:31:54;;;;;;;24.85;6.63;;;;;;;;;;5078948;28;20404;-86
2023/08/10 06:34:20;;;;;;;0.68;0.20;;;;;;;;;;5078748;28;20057;-86
2023/08/10 06:36:46;;;;;;;4.35;0.05;;;;;;;;;;5078644;28;20505;-86
2023/08/10 06:39:12;;;;;;;0.10;0.10;;;;;;;;;;5060293;28;20438;-86
2023/08/10 06:41:38;;;;;;;0.20;0.10;;;;;;;;;;5037623;28;20515;-86
2023/08/10 06:44:05;;;;;;;2.25;0.25;;;;;;;;;;5061784;28;20048;-86
2023/08/10 06:46:31;;;;;;;0.10;0.00;;;;;;;;;;5075418;28;20052;-87
2023/08/10 06:48:57;;;;;;;0.47;0.10;;;;;;;;;;5077762;28;20106;-86
2023/08/10 06:51:23;;;;;;;1.95;0.28;;;;;;;;;;5060120;28;20060;-87
2023/08/10 06:53:49;;;;;;;1.08;0.10;;;;;;;;;;5076218;28;20051;-86
2023/08/10 06:56:16;;;;;;;0.10;0.00;;;;;;;;;;5076442;28;20083;-86
2023/08/10 06:58:42;;;;;;;0.17;0.10;;;;;;;;;;5076755;28;20041;-86
2023/08/10 07:01:08;;;;;;;2.25;0.35;;;;;;;;;;5043597;28;20052;-86
2023/08/10 07:03:37;;;;;;;0.08;0.00;;;;;;;;;;5077161;28;20090;-87
2023/08/10 07:06:03;;;;;;;5.22;0.70;;;;;;;;;;5075463;28;20051;-85
2023/08/10 07:08:30;;;;;;;1.48;0.52;;;;;;;;;;5077540;28;20041;-86
2023/08/10 07:10:56;;;;;;;1.17;0.32;;;;;;;;;;5076023;28;20053;-87
2023/08/10 07:13:23;;;;;;;3.47;0.52;;;;;;;;;;5060060;28;20074;-86
2023/08/10 07:15:49;;;;;;;1.00;0.40;;;;;;;;;;5059153;28;20131;-86
2023/08/10 07:18:15;;;;;;;1.48;0.30;;;;;;;;;;5075781;28;20094;-86
2023/08/10 07:20:41;;;;;;;0.65;0.30;;;;;;;;;;5075829;28;20400;-86
2023/08/10 07:23:07;;;;;;;2.58;0.50;;;;;;;;;;5075374;28;20041;-86
2023/08/10 07:25:34;;;;;;;3.15;0.93;;;;;;;;;;5059030;28;20036;-87
2023/08/10 07:28:00;;;;;;;6.00;1.00;;;;;;;;;;5059012;28;20054;-87
2023/08/10 07:30:26;;;;;;;3.55;0.70;;;;;;;;;;5059770;28;20084;-86
2023/08/10 07:32:52;;;;;;;2.53;0.65;;;;;;;;;;5077227;28;20499;-86
2023/08/10 07:35:19;;;;;;;4.00;0.60;;;;;;;;;;5075526;28;20048;-86
2023/08/10 07:37:45;;;;;;;4.97;0.75;;;;;;;;;;5075020;28;20052;-86
2023/08/10 07:40:11;;;;;;;3.55;0.68;;;;;;;;;;5075351;28;20044;-86
2023/08/10 07:42:37;;;;;;;3.92;0.60;;;;;;;;;;5075579;28;20048;-86
2023/08/10 07:45:04;;;;;;;5.82;0.40;;;;;;;;;;5074379;28;20048;-83
2023/08/10 07:47:30;;;;;;;2.88;0.60;;;;;;;;;;5075248;28;20044;-83
2023/08/10 07:49:56;;;;;;;4.18;0.50;;;;;;;;;;5074730;28;20090;-84
2023/08/10 07:52:23;;;;;;;3.35;0.60;;;;;;;;;;5075735;28;20063;-83
2023/08/10 07:54:49;;;;;;;2.60;0.38;;;;;;;;;;5076144;28;20049;-83
2023/08/10 07:57:15;;;;;;;4.25;0.40;;;;;;;;;;5074856;28;20090;-83
2023/08/10 07:59:41;;;;;;;5.28;0.57;;;;;;;;;;5075981;28;20389;-82
2023/08/10 08:02:08;;;;;;;3.28;0.50;;;;;;;;;;5074825;28;20051;-82
2023/08/10 08:04:34;;;;;;;4.97;0.60;;;;;;;;;;5058109;28;20541;-82
2023/08/10 08:07:00;;;;;;;4.05;0.60;;;;;;;;;;5075697;28;20400;-83
2023/08/10 08:09:26;;;;;;;2.75;0.30;;;;;;;;;;5073849;28;20052;-82
2023/08/10 08:11:52;;;;;;;3.38;0.30;;;;;;;;;;5058231;28;20048;-82
2023/08/10 08:14:18;;;;;;;2.95;0.30;;;;;;;;;;5074809;28;20057;-83
2023/08/10 08:16:45;;;;;;;2.13;0.40;;;;;;;;;;5075209;28;20048;-86
2023/08/10 08:19:11;;;;;;;3.78;0.35;;;;;;;;;;5058579;28;20052;-86
2023/08/10 08:21:37;;;;;;;3.30;0.40;;;;;;;;;;5058065;28;20500;-87
2023/08/10 08:24:03;;;;;;;4.20;0.50;;;;;;;;;;5075612;28;20037;-86
2023/08/10 08:26:30;;;;;;;4.45;0.57;;;;;;;;;;5075467;28;20047;-87
2023/08/10 08:28:57;;;;;;;3.42;0.30;;;;;;;;;;5075631;28;20044;-87
2023/08/10 08:31:25;;;;;;;2.13;0.30;;;;;;;;;;5074062;28;20054;-87
2023/08/10 08:33:52;;;;;;;5.72;0.32;;;;;;;;;;5075284;28;20059;-87
2023/08/10 08:36:18;;;;;;;3.88;0.30;;;;;;;;;;5074544;28;20131;-87
2023/08/10 08:38:44;;;;;;;5.38;0.30;;;;;;;;;;5057698;28;20056;-87
2023/08/10 08:41:11;;;;;;;4.40;0.30;;;;;;;;;;5073851;28;20052;-87
2023/08/10 08:43:37;;;;;;;2.65;0.20;;;;;;;;;;5074801;28;20037;-87
2023/08/10 08:46:04;;;;;;;3.08;0.55;;;;;;;;;;5073590;28;20060;-87
2023/08/10 08:48:31;;;;;;;2.33;0.40;;;;;;;;;;5073803;28;20075;-87
2023/08/10 08:50:57;;;;;;;2.22;0.30;;;;;;;;;;5073836;28;20063;-87
2023/08/10 08:53:24;;;;;;;2.72;0.30;;;;;;;;;;5073999;28;20052;-87
2023/08/10 08:55:51;;;;;;;2.75;0.20;;;;;;;;;;5073570;28;20445;-87
2023/08/10 08:58:18;;;;;;;1.60;0.20;;;;;;;;;;5073748;28;20054;-87
2023/08/10 09:00:48;;;;;;;2.28;0.40;;;;;;;;;;5074574;28;20044;-87
2023/08/10 09:03:14;;;;;;;2.08;0.30;;;;;;;;;;5075558;28;20154;-87
2023/08/10 09:05:40;;;;;;;4.43;0.40;;;;;;;;;;5074225;28;20066;-86
2023/08/10 09:08:07;;;;;;;3.15;0.32;;;;;;;;;;5074291;28;20044;-87
2023/08/10 09:10:33;;;;;;;1.42;0.55;;;;;;;;;;5074579;28;20052;-87
2023/08/10 09:13:10;;;;;;;2.63;0.52;;;;;;;;;;5074192;28;20059;-87
2023/08/10 09:15:36;;;;;;;2.80;0.30;;;;;;;;;;5073278;28;20049;-86
2023/08/10 09:18:04;;;;;;;3.35;0.30;;;;;;;;;;5074821;28;20040;-87
2023/08/10 09:20:30;;;;;;;2.83;0.40;;;;;;;;;;5074570;28;20044;-87
2023/08/10 09:22:58;;;;;;;5.45;0.45;;;;;;;;;;5073724;28;20040;-87
2023/08/10 09:25:24;;;;;;;2.55;0.40;;;;;;;;;;5074895;28;20052;-87
2023/08/10 09:27:51;;;;;;;2.53;0.65;;;;;;;;;;5057169;28;20476;-87
2023/08/10 09:30:17;;;;;;;3.10;0.40;;;;;;;;;;5074877;28;20051;-87
2023/08/10 09:32:44;;;;;;;3.80;0.35;;;;;;;;;;5057128;28;20044;-87
2023/08/10 09:35:17;;;;;;;4.10;0.68;;;;;;;;;;5074919;28;20052;-87
2023/08/10 09:37:43;;;;;;;3.42;0.30;;;;;;;;;;5074517;28;20135;-87
2023/08/10 09:40:14;;;;;;;3.25;0.30;;;;;;;;;;5073952;28;20049;-87
2023/08/10 09:42:40;;;;;;;3.67;0.40;;;;;;;;;;5074816;28;20128;-87
2023/08/10 09:45:08;;;;;;;6.07;0.40;;;;;;;;;;5073522;28;20122;-87
2023/08/10 09:47:41;;;;;;;1.80;0.20;;;;;;;;;;5073909;28;20086;-87
2023/08/10 09:50:08;;;;;;;3.95;0.63;;;;;;;;;;5073510;28;20087;-87
2023/08/10 09:52:36;;;;;;;2.80;0.30;;;;;;;;;;5074667;28;20052;-87
2023/08/10 09:55:03;;;;;;;1.00;0.30;;;;;;;;;;5073658;28;20088;-87
2023/08/10 09:57:29;;;;;;;2.47;0.30;;;;;;;;;;5074456;28;20570;-87
2023/08/10 09:59:55;;;;;;;3.88;0.40;;;;;;;;;;5077941;28;20492;-85
2023/08/10 10:02:22;;;;;;;2.15;0.30;;;;;;;;;;5061160;28;20488;-87
2023/08/10 10:04:48;;;;;;;2.72;0.30;;;;;;;;;;5076983;28;20055;-86
2023/08/10 10:07:16;;;;;;;2.63;0.30;;;;;;;;;;5060613;28;20059;-86
2023/08/10 10:09:45;;;;;;;3.90;0.60;;;;;;;;;;5076971;28;20127;-87
2023/08/10 10:12:12;;;;;;;4.22;0.40;;;;;;;;;;5077958;28;20057;-87
2023/08/10 10:14:39;;;;;;;3.58;0.40;;;;;;;;;;5078089;28;20103;-86
2023/08/10 10:17:06;;;;;;;3.92;0.50;;;;;;;;;;5076584;28;20084;-86
2023/08/10 10:19:32;;;;;;;2.05;0.30;;;;;;;;;;5077755;28;20098;-86
2023/08/10 10:21:59;;;;;;;2.28;0.50;;;;;;;;;;5077823;28;20048;-87
2023/08/10 10:24:29;;;;;;;1.65;0.40;;;;;;;;;;5076819;28;20533;-87
2023/08/10 10:26:59;;;;;;;3.10;0.30;;;;;;;;;;5077107;28;20089;-87
2023/08/10 10:29:36;;;;;;;3.47;0.43;;;;;;;;;;5077805;28;20052;-87
2023/08/10 10:32:11;;;;;;;3.90;0.50;;;;;;;;;;5077129;28;20048;-87
2023/08/10 10:34:37;;;;;;;1.50;0.30;;;;;;;;;;5076472;28;20040;-87
2023/08/10 10:37:30;;;;;;;2.70;0.40;;;;;;;;;;5078123;28;20073;-87
2023/08/10 10:40:13;;;;;;;3.55;0.45;;;;;;;;;;5076162;28;20145;-87
2023/08/10 10:42:59;;;;;;;5.25;0.50;;;;;;;;;;5078293;28;20048;-87
2023/08/10 10:45:25;;;;;;;2.10;0.40;;;;;;;;;;5076433;28;20155;-87
2023/08/10 10:47:51;;;;;;;5.00;0.80;;;;;;;;;;5059844;28;20059;-87
2023/08/10 10:50:19;;;;;;;3.33;0.40;;;;;;;;;;5076505;28;20058;-87
2023/08/10 10:52:55;;;;;;;3.45;0.40;;;;;;;;;;5077976;28;20157;-87
2023/08/10 10:55:25;;;;;;;2.78;0.40;;;;;;;;;;5077146;28;20088;-87
2023/08/10 10:57:51;;;;;;;5.22;0.68;;;;;;;;;;5076789;28;20056;-87
2023/08/10 11:00:19;;;;;;;3.50;0.40;;;;;;;;;;5060099;28;20135;-87
2023/08/10 11:02:46;;;;;;;2.10;0.30;;;;;;;;;;5076688;28;20056;-87
2023/08/10 11:05:13;;;;;;;5.32;0.47;;;;;;;;;;5076133;28;20040;-87
2023/08/10 11:07:45;;;;;;;2.80;0.40;;;;;;;;;;5076210;28;20048;-88
2023/08/10 11:10:12;;;;;;;2.90;0.40;;;;;;;;;;5057687;28;20083;-88
2023/08/10 11:12:39;;;;;;;2.38;0.40;;;;;;;;;;5077979;28;20060;-88
2023/08/10 11:15:07;;;;;;;1.77;0.40;;;;;;;;;;5076856;28;20041;-87
2023/08/10 11:17:34;;;;;;;3.38;0.60;;;;;;;;;;5076346;28;20052;-88
2023/08/10 11:20:00;;;;;;;1.98;0.30;;;;;;;;;;5072650;28;20044;-88
2023/08/10 11:22:27;;;;;;;6.00;0.43;;;;;;;;;;5076215;28;20093;-88
2023/08/10 11:24:53;;;;;;;5.10;0.80;;;;;;;;;;5075087;28;20481;-88
2023/08/10 11:27:19;;;;;;;5.93;0.40;;;;;;;;;;5059798;28;20056;-88
2023/08/10 11:29:47;;;;;;;1.50;0.30;;;;;;;;;;5059527;28;20139;-88
2023/08/10 11:32:14;;;;;;;1.33;0.32;;;;;;;;;;5077217;28;20125;-88
2023/08/10 11:34:40;;;;;;;2.53;0.40;;;;;;;;;;5077014;28;20080;-87
2023/08/10 11:37:06;;;;;;;4.93;0.50;;;;;;;;;;5076466;28;20125;-88
2023/08/10 11:39:33;;;;;;;2.38;0.50;;;;;;;;;;5076199;28;20050;-88
2023/08/10 11:41:59;;;;;;;3.20;0.68;;;;;;;;;;5076394;28;20155;-87
2023/08/10 11:44:29;;;;;;;3.30;0.65;;;;;;;;;;5059038;28;20040;-88
2023/08/10 11:46:57;;;;;;;4.20;0.50;;;;;;;;;;5059188;28;20131;-87
2023/08/10 11:49:27;;;;;;;2.58;0.98;;;;;;;;;;5075809;28;20515;-87
2023/08/10 11:51:56;;;;;;;3.10;0.70;;;;;;;;;;5075226;28;20040;-88
2023/08/10 11:54:29;;;;;;;2.55;0.50;;;;;;;;;;5075507;28;20113;-88
2023/08/10 11:56:55;;;;;;;3.17;1.13;;;;;;;;;;5075834;28;20102;-88
2023/08/10 11:59:21;;;;;;;3.20;0.75;;;;;;;;;;5075637;28;20056;-86
2023/08/10 12:01:52;;;;;;;4.93;0.65;;;;;;;;;;5075518;28;20048;-86
2023/08/10 12:04:18;;;;;;;1.75;0.50;;;;;;;;;;5075806;28;20127;-86
2023/08/10 12:06:44;;;;;;;4.38;0.70;;;;;;;;;;5059728;28;20123;-87
2023/08/10 12:09:11;;;;;;;2.95;0.60;;;;;;;;;;5076126;28;20131;-86
2023/08/10 12:11:38;;;;;;;2.55;0.80;;;;;;;;;;5074205;28;20090;-87
2023/08/10 12:14:07;;;;;;;3.08;0.98;;;;;;;;;;5076188;28;20092;-87
2023/08/10 12:16:33;;;;;;;2.97;0.73;;;;;;;;;;5074303;28;20135;-87
2023/08/10 12:18:59;;;;;;;7.00;1.20;;;;;;;;;;5074718;28;20052;-86
2023/08/10 12:21:25;;;;;;;1.70;0.93;;;;;;;;;;5075226;28;20101;-87
2023/08/10 12:23:51;;;;;;;3.00;0.82;;;;;;;;;;5075753;28;20102;-87
2023/08/10 12:26:17;;;;;;;4.80;1.00;;;;;;;;;;5057820;28;20087;-86
2023/08/10 12:28:44;;;;;;;2.38;0.63;;;;;;;;;;5058932;28;20084;-86
2023/08/10 12:31:10;;;;;;;3.75;0.93;;;;;;;;;;5058632;28;20393;-87
2023/08/10 12:33:39;;;;;;;2.90;0.82;;;;;;;;;;5076114;28;20052;-87
2023/08/10 12:36:05;;;;;;;2.58;0.75;;;;;;;;;;5075112;28;20465;-87
2023/08/10 12:38:31;;;;;;;3.25;0.73;;;;;;;;;;5074223;28;20044;-87
2023/08/10 12:40:58;;;;;;;4.03;1.10;;;;;;;;;;5074488;28;20105;-87
2023/08/10 12:43:24;;;;;;;3.08;1.05;;;;;;;;;;5057594;28;20049;-86
2023/08/10 12:45:50;;;;;;;9.20;1.10;;;;;;;;;;5074156;28;20127;-87
2023/08/10 12:48:16;;;;;;;2.50;0.90;;;;;;;;;;5076123;28;20503;-89
2023/08/10 12:50:42;;;;;;;2.22;0.60;;;;;;;;;;5076246;28;20048;-88
2023/08/10 12:53:08;;;;;;;2.53;0.80;;;;;;;;;;5075316;28;20048;-88
2023/08/10 12:55:34;;;;;;;2.03;0.75;;;;;;;;;;5057638;28;20049;-88
2023/08/10 12:58:00;;;;;;;5.45;0.85;;;;;;;;;;5074235;28;20045;-88
2023/08/10 13:00:26;;;;;;;2.13;0.63;;;;;;;;;;5075829;28;20151;-88
2023/08/10 13:02:52;;;;;;;3.30;0.88;;;;;;;;;;5074898;28;20102;-88
2023/08/10 13:05:19;;;;;;;2.03;1.30;;;;;;;;;;5074741;28;20052;-89
2023/08/10 13:07:46;;;;;;;2.55;0.82;;;;;;;;;;5075986;28;20459;-88
2023/08/10 13:10:15;;;;;;;1.63;0.70;;;;;;;;;;5076094;28;20072;-88
2023/08/10 13:12:43;;;;;;;2.58;0.88;;;;;;;;;;5075842;28;20068;-88
2023/08/10 13:15:09;;;;;;;2.28;0.70;;;;;;;;;;5075570;28;20055;-88
2023/08/10 13:17:35;;;;;;;3.47;0.80;;;;;;;;;;5075545;28;20052;-88
2023/08/10 13:20:03;;;;;;;2.97;1.17;;;;;;;;;;5074534;28;20044;-88
2023/08/10 13:22:36;;;;;;;3.70;1.90;;;;;;;;;;5057979;28;20102;-89
2023/08/10 13:25:06;;;;;;;3.35;1.10;;;;;;;;;;5074678;28;20044;-88
2023/08/10 13:27:32;;;;;;;3.33;0.88;;;;;;;;;;5075340;28;20051;-88
2023/08/10 13:29:58;;;;;;;2.15;0.85;;;;;;;;;;5075709;28;20067;-88
2023/08/10 13:32:24;;;;;;;3.78;3.47;;;;;;;;;;5073954;28;20044;-89
2023/08/10 13:34:51;;;;;;;3.70;1.33;;;;;;;;;;5079324;28;20048;-88
2023/08/10 13:37:17;;;;;;;3.45;1.17;;;;;;;;;;5078796;28;20052;-88
2023/08/10 13:39:44;;;;;;;2.00;0.70;;;;;;;;;;5078848;28;20079;-88
2023/08/10 13:42:10;;;;;;;5.82;1.17;;;;;;;;;;5075842;28;20397;-87
2023/08/10 13:44:36;;;;;;;4.28;1.00;;;;;;;;;;5071099;28;20078;-88
2023/08/10 13:47:02;;;;;;;5.65;1.55;;;;;;;;;;5077610;28;20045;-88
2023/08/10 13:49:29;;;;;;;5.07;1.65;;;;;;;;;;5068628;28;20056;-88
2023/08/10 13:51:55;;;;;;;2.35;1.77;;;;;;;;;;5077938;28;20241;-88
2023/08/10 13:54:21;;;;;;;4.43;1.50;;;;;;;;;;5045114;28;20049;-88
2023/08/10 13:57:00;;;;;;;5.70;1.05;;;;;;;;;;5078352;28;20041;-88
2023/08/10 13:59:27;;;;;;;2.75;1.23;;;;;;;;;;5078193;28;20396;-88
2023/08/10 14:01:53;;;;;;;2.97;1.40;;;;;;;;;;5077736;28;20048;-88
2023/08/10 14:04:19;;;;;;;2.00;1.35;;;;;;;;;;5060843;28;20047;-88
2023/08/10 14:06:46;;;;;;;1.88;1.27;;;;;;;;;;5074654;28;20037;-88
2023/08/10 14:09:12;;;;;;;2.05;1.02;;;;;;;;;;5084027;28;20368;-88
2023/08/10 14:11:38;;;;;;;2.38;1.90;;;;;;;;;;5078667;28;20048;-89
2023/08/10 14:14:05;;;;;;;3.30;1.30;;;;;;;;;;5078810;28;20048;-88
2023/08/10 14:16:31;;;;;;;3.15;1.88;;;;;;;;;;5077391;28;20119;-89
2023/08/10 14:18:57;;;;;;;3.92;1.10;;;;;;;;;;5079113;28;20063;-88
2023/08/10 14:21:24;;;;;;;4.97;1.52;;;;;;;;;;5060849;28;20040;-88
2023/08/10 14:23:50;;;;;;;7.18;1.50;;;;;;;;;;5078687;28;20036;-88
2023/08/10 14:26:16;;;;;;;1.67;1.20;;;;;;;;;;5068980;28;20076;-89
2023/08/10 14:28:42;;;;;;;2.78;1.40;;;;;;;;;;5078418;28;20044;-88
2023/08/10 14:31:08;;;;;;;2.75;1.50;;;;;;;;;;5077407;28;20051;-89
2023/08/10 14:33:34;;;;;;;5.35;1.55;;;;;;;;;;5078591;28;20056;-89
2023/08/10 14:36:00;;;;;;;7.38;2.40;;;;;;;;;;5077621;28;20044;-89
2023/08/10 14:38:26;;;;;;;5.13;1.42;;;;;;;;;;5078338;28;20492;-89
2023/08/10 14:40:52;;;;;;;4.03;1.73;;;;;;;;;;5078729;28;20140;-89
2023/08/10 14:43:18;;;;;;;4.30;1.00;;;;;;;;;;5059162;28;20052;-89